sensor_id;sensor_type;location;lat;lon;timestamp;pressure;altitude;pressure_sealevel;temperature;humidity
33286;BME280;19656;50.096;20.014;2023-02-19T00:01:31;98701.11;;;9.35;69.82
33286;BME280;19656;50.096;20.014;2023-02-19T00:06:35;98706.40;;;9.36;69.64
33286;BME280;19656;50.096;20.014;2023-02-19T00:11:39;98698.09;;;9.30;69.58
33286;BME280;19656;50.096;20.014;2023-02-19T00:16:42;98683.66;;;9.25;69.99
33286;BME280;19656;50.096;20.014;2023-02-19T00:21:47;98677.52;;;9.25;69.88
33286;BME280;19656;50.096;20.014;2023-02-19T00:26:52;98684.50;;;9.29;69.67
33286;BME280;19656;50.096;20.014;2023-02-19T00:31:55;98699.11;;;9.30;69.18
33286;BME280;19656;50.096;20.014;2023-02-19T00:36:59;98697.06;;;9.29;69.25
33286;BME280;19656;50.096;20.014;2023-02-19T00:42:03;98689.24;;;9.30;69.26
33286;BME280;19656;50.096;20.014;2023-02-19T00:47:06;98680.41;;;9.29;69.23
33286;BME280;19656;50.096;20.014;2023-02-19T00:52:13;98675.17;;;9.28;68.87
33286;BME280;19656;50.096;20.014;2023-02-19T00:57:16;98672.89;;;9.19;68.94
33286;BME280;19656;50.096;20.014;2023-02-19T01:02:20;98665.69;;;9.18;69.10
33286;BME280;19656;50.096;20.014;2023-02-19T01:07:25;98668.58;;;9.26;69.05
33286;BME280;19656;50.096;20.014;2023-02-19T01:12:29;98665.15;;;9.30;68.82
33286;BME280;19656;50.096;20.014;2023-02-19T01:17:34;98666.54;;;9.36;68.74
33286;BME280;19656;50.096;20.014;2023-02-19T01:22:38;98660.41;;;9.32;68.70
33286;BME280;19656;50.096;20.014;2023-02-19T01:27:57;98655.16;;;9.20;68.79
33286;BME280;19656;50.096;20.014;2023-02-19T01:33:03;98645.71;;;9.18;68.61
33286;BME280;19656;50.096;20.014;2023-02-19T01:38:09;98644.12;;;9.15;68.41
33286;BME280;19656;50.096;20.014;2023-02-19T01:43:16;98648.11;;;9.16;68.28
33286;BME280;19656;50.096;20.014;2023-02-19T01:48:24;98643.45;;;9.15;67.82
33286;BME280;19656;50.096;20.014;2023-02-19T01:53:30;98638.89;;;9.08;67.83
33286;BME280;19656;50.096;20.014;2023-02-19T01:58:37;98637.22;;;9.07;68.03
33286;BME280;19656;50.096;20.014;2023-02-19T02:03:44;98633.53;;;9.04;68.38
33286;BME280;19656;50.096;20.014;2023-02-19T02:08:55;98629.52;;;9.03;68.60
33286;BME280;19656;50.096;20.014;2023-02-19T02:14:21;98637.94;;;9.01;68.92
33286;BME280;19656;50.096;20.014;2023-02-19T02:36:24;98638.02;;;9.11;69.53
33286;BME280;19656;50.096;20.014;2023-02-19T02:41:31;98642.80;;;9.05;69.50
33286;BME280;19656;50.096;20.014;2023-02-19T02:46:40;98642.11;;;8.96;69.48
33286;BME280;19656;50.096;20.014;2023-02-19T02:51:51;98634.61;;;8.95;69.74
33286;BME280;19656;50.096;20.014;2023-02-19T02:57:00;98626.05;;;9.01;69.97
33286;BME280;19656;50.096;20.014;2023-02-19T03:02:22;98626.14;;;9.06;70.25
33286;BME280;19656;50.096;20.014;2023-02-19T03:07:32;98623.08;;;9.12;70.32
33286;BME280;19656;50.096;20.014;2023-02-19T03:12:39;98618.73;;;9.11;70.06
33286;BME280;19656;50.096;20.014;2023-02-19T03:18:07;98622.99;;;9.08;70.05
33286;BME280;19656;50.096;20.014;2023-02-19T03:23:32;98623.98;;;9.09;69.97
33286;BME280;19656;50.096;20.014;2023-02-19T03:28:57;98617.27;;;9.06;70.04
33286;BME280;19656;50.096;20.014;2023-02-19T03:34:53;98612.13;;;9.00;70.34
33286;BME280;19656;50.096;20.014;2023-02-19T03:39:58;98605.34;;;9.10;70.64
33286;BME280;19656;50.096;20.014;2023-02-19T03:50:42;98593.02;;;9.12;71.06
33286;BME280;19656;50.096;20.014;2023-02-19T04:01:16;98586.23;;;9.05;71.52
33286;BME280;19656;50.096;20.014;2023-02-19T04:06:26;98589.00;;;9.03;71.86
33286;BME280;19656;50.096;20.014;2023-02-19T04:11:31;98583.64;;;8.98;72.31
33286;BME280;19656;50.096;20.014;2023-02-19T04:16:40;98579.59;;;9.00;72.37
33286;BME280;19656;50.096;20.014;2023-02-19T04:21:46;98568.02;;;9.07;72.40
33286;BME280;19656;50.096;20.014;2023-02-19T04:26:52;98560.95;;;9.07;72.25
33286;BME280;19656;50.096;20.014;2023-02-19T04:31:56;98547.05;;;9.08;72.03
33286;BME280;19656;50.096;20.014;2023-02-19T04:37:00;98544.80;;;9.08;72.10
33286;BME280;19656;50.096;20.014;2023-02-19T04:42:03;98534.27;;;9.06;72.24
33286;BME280;19656;50.096;20.014;2023-02-19T04:47:07;98538.23;;;9.05;72.03
33286;BME280;19656;50.096;20.014;2023-02-19T04:52:11;98539.63;;;9.08;72.08
33286;BME280;19656;50.096;20.014;2023-02-19T04:57:15;98542.15;;;9.10;72.21
33286;BME280;19656;50.096;20.014;2023-02-19T05:02:19;98546.16;;;9.14;72.17
33286;BME280;19656;50.096;20.014;2023-02-19T05:07:22;98542.36;;;9.13;72.23
33286;BME280;19656;50.096;20.014;2023-02-19T05:12:25;98532.02;;;9.06;72.11
33286;BME280;19656;50.096;20.014;2023-02-19T05:17:32;98530.80;;;8.97;72.48
33286;BME280;19656;50.096;20.014;2023-02-19T05:22:37;98524.23;;;9.03;72.49
33286;BME280;19656;50.096;20.014;2023-02-19T05:27:41;98521.89;;;9.09;72.26
33286;BME280;19656;50.096;20.014;2023-02-19T05:32:44;98508.70;;;9.08;72.36
33286;BME280;19656;50.096;20.014;2023-02-19T05:37:48;98506.25;;;9.12;72.19
33286;BME280;19656;50.096;20.014;2023-02-19T05:42:51;98503.53;;;9.11;72.07
33286;BME280;19656;50.096;20.014;2023-02-19T05:47:55;98492.42;;;9.08;71.93
33286;BME280;19656;50.096;20.014;2023-02-19T05:53:03;98485.73;;;9.07;72.12
33286;BME280;19656;50.096;20.014;2023-02-19T05:58:07;98479.27;;;9.06;72.02
33286;BME280;19656;50.096;20.014;2023-02-19T06:03:11;98486.27;;;9.10;72.18
33286;BME280;19656;50.096;20.014;2023-02-19T06:08:15;98494.14;;;9.08;71.80
33286;BME280;19656;50.096;20.014;2023-02-19T06:13:21;98498.69;;;9.14;71.90
33286;BME280;19656;50.096;20.014;2023-02-19T06:18:24;98481.98;;;9.18;71.68
33286;BME280;19656;50.096;20.014;2023-02-19T06:23:28;98475.67;;;9.12;71.37
33286;BME280;19656;50.096;20.014;2023-02-19T06:28:32;98466.92;;;9.10;71.66
33286;BME280;19656;50.096;20.014;2023-02-19T06:33:36;98470.03;;;9.06;71.77
33286;BME280;19656;50.096;20.014;2023-02-19T06:38:43;98467.77;;;9.11;71.90
33286;BME280;19656;50.096;20.014;2023-02-19T06:43:47;98478.35;;;9.12;71.89
33286;BME280;19656;50.096;20.014;2023-02-19T06:48:50;98491.59;;;9.09;72.20
33286;BME280;19656;50.096;20.014;2023-02-19T06:53:54;98482.66;;;9.16;72.02
33286;BME280;19656;50.096;20.014;2023-02-19T06:59:01;98481.79;;;9.16;71.66
33286;BME280;19656;50.096;20.014;2023-02-19T07:04:06;98485.11;;;9.11;71.96
33286;BME280;19656;50.096;20.014;2023-02-19T07:09:10;98473.40;;;9.19;72.04
33286;BME280;19656;50.096;20.014;2023-02-19T07:14:15;98474.67;;;9.16;72.17
33286;BME280;19656;50.096;20.014;2023-02-19T07:19:19;98474.83;;;9.14;72.44
33286;BME280;19656;50.096;20.014;2023-02-19T07:24:22;98471.43;;;9.20;72.45
33286;BME280;19656;50.096;20.014;2023-02-19T07:29:26;98457.91;;;9.27;72.29
33286;BME280;19656;50.096;20.014;2023-02-19T07:34:30;98459.73;;;9.34;72.16
33286;BME280;19656;50.096;20.014;2023-02-19T07:39:34;98461.77;;;9.40;71.75
33286;BME280;19656;50.096;20.014;2023-02-19T07:44:37;98465.34;;;9.48;71.91
33286;BME280;19656;50.096;20.014;2023-02-19T07:49:41;98464.33;;;9.53;71.96
33286;BME280;19656;50.096;20.014;2023-02-19T07:54:44;98459.65;;;9.59;71.62
33286;BME280;19656;50.096;20.014;2023-02-19T07:59:48;98456.50;;;9.61;71.54
33286;BME280;19656;50.096;20.014;2023-02-19T08:04:51;98453.19;;;9.63;71.69
33286;BME280;19656;50.096;20.014;2023-02-19T08:09:55;98453.53;;;9.71;71.61
33286;BME280;19656;50.096;20.014;2023-02-19T08:15:19;98444.94;;;9.80;71.55
33286;BME280;19656;50.096;20.014;2023-02-19T08:20:24;98443.13;;;9.83;71.47
33286;BME280;19656;50.096;20.014;2023-02-19T08:25:28;98433.63;;;9.82;71.63
33286;BME280;19656;50.096;20.014;2023-02-19T08:30:32;98442.91;;;9.78;71.37
33286;BME280;19656;50.096;20.014;2023-02-19T08:35:36;98441.80;;;9.82;71.68
33286;BME280;19656;50.096;20.014;2023-02-19T08:40:41;98444.70;;;9.91;71.78
33286;BME280;19656;50.096;20.014;2023-02-19T08:45:45;98447.94;;;10.01;71.76
33286;BME280;19656;50.096;20.014;2023-02-19T08:50:57;98447.11;;;9.97;71.15
33286;BME280;19656;50.096;20.014;2023-02-19T08:56:11;98455.75;;;9.90;71.22
33286;BME280;19656;50.096;20.014;2023-02-19T09:01:16;98450.75;;;9.75;71.41
33286;BME280;19656;50.096;20.014;2023-02-19T09:06:20;98444.16;;;9.73;71.76
33286;BME280;19656;50.096;20.014;2023-02-19T09:11:24;98450.69;;;9.74;72.36
33286;BME280;19656;50.096;20.014;2023-02-19T09:16:27;98450.66;;;9.74;71.91
33286;BME280;19656;50.096;20.014;2023-02-19T09:21:31;98453.96;;;9.70;72.16
33286;BME280;19656;50.096;20.014;2023-02-19T09:26:35;98452.95;;;9.66;72.34
33286;BME280;19656;50.096;20.014;2023-02-19T09:31:40;98452.11;;;9.55;72.39
33286;BME280;19656;50.096;20.014;2023-02-19T09:36:44;98458.17;;;9.46;72.31
33286;BME280;19656;50.096;20.014;2023-02-19T09:41:56;98465.70;;;9.40;72.06
33286;BME280;19656;50.096;20.014;2023-02-19T09:47:02;98475.96;;;9.45;71.52
33286;BME280;19656;50.096;20.014;2023-02-19T09:52:14;98473.67;;;9.42;71.16
33286;BME280;19656;50.096;20.014;2023-02-19T09:57:21;98473.60;;;9.36;70.71
33286;BME280;19656;50.096;20.014;2023-02-19T10:02:25;98473.52;;;9.32;71.34
33286;BME280;19656;50.096;20.014;2023-02-19T10:07:42;98475.52;;;9.33;71.19
33286;BME280;19656;50.096;20.014;2023-02-19T10:12:46;98476.11;;;9.27;71.70
33286;BME280;19656;50.096;20.014;2023-02-19T10:17:52;98476.48;;;9.27;71.91
33286;BME280;19656;50.096;20.014;2023-02-19T10:23:05;98491.27;;;9.28;72.02
33286;BME280;19656;50.096;20.014;2023-02-19T10:28:13;98494.40;;;9.29;71.84
33286;BME280;19656;50.096;20.014;2023-02-19T10:33:18;98513.14;;;9.30;71.04
33286;BME280;19656;50.096;20.014;2023-02-19T10:43:29;98537.23;;;8.90;69.99
33286;BME280;19656;50.096;20.014;2023-02-19T10:48:38;98548.55;;;8.68;69.40
33286;BME280;19656;50.096;20.014;2023-02-19T10:53:47;98552.97;;;8.47;69.70
33286;BME280;19656;50.096;20.014;2023-02-19T10:58:51;98555.63;;;8.30;69.74
33286;BME280;19656;50.096;20.014;2023-02-19T11:04:15;98555.52;;;8.17;69.77
33286;BME280;19656;50.096;20.014;2023-02-19T11:09:24;98569.80;;;8.20;69.98
33286;BME280;19656;50.096;20.014;2023-02-19T11:14:31;98584.38;;;8.24;69.55
33286;BME280;19656;50.096;20.014;2023-02-19T11:19:42;98592.02;;;8.24;69.20
33286;BME280;19656;50.096;20.014;2023-02-19T11:24:48;98600.31;;;8.18;68.93
33286;BME280;19656;50.096;20.014;2023-02-19T11:30:32;98595.02;;;8.09;68.40
33286;BME280;19656;50.096;20.014;2023-02-19T11:35:38;98600.60;;;7.92;67.90
33286;BME280;19656;50.096;20.014;2023-02-19T11:57:13;98638.75;;;7.71;68.48
33286;BME280;19656;50.096;20.014;2023-02-19T12:18:56;98660.89;;;7.85;67.13
33286;BME280;19656;50.096;20.014;2023-02-19T12:35:27;98691.64;;;7.53;66.28
33286;BME280;19656;50.096;20.014;2023-02-19T12:46:07;98705.10;;;7.52;68.50
33286;BME280;19656;50.096;20.014;2023-02-19T12:57:08;98703.89;;;7.52;67.29
33286;BME280;19656;50.096;20.014;2023-02-19T13:02:43;98714.31;;;7.67;67.12
33286;BME280;19656;50.096;20.014;2023-02-19T13:08:06;98711.00;;;7.83;67.45
33286;BME280;19656;50.096;20.014;2023-02-19T13:13:27;98711.91;;;7.79;66.66
33286;BME280;19656;50.096;20.014;2023-02-19T13:18:41;98713.31;;;7.67;66.16
33286;BME280;19656;50.096;20.014;2023-02-19T13:23:47;98719.63;;;7.68;66.10
33286;BME280;19656;50.096;20.014;2023-02-19T13:29:30;98729.95;;;7.59;65.82
33286;BME280;19656;50.096;20.014;2023-02-19T13:40:29;98751.99;;;7.53;65.32
33286;BME280;19656;50.096;20.014;2023-02-19T13:45:39;98760.02;;;7.52;64.88
33286;BME280;19656;50.096;20.014;2023-02-19T13:50:46;98769.66;;;7.43;64.49
33286;BME280;19656;50.096;20.014;2023-02-19T13:55:50;98774.21;;;7.44;64.17
33286;BME280;19656;50.096;20.014;2023-02-19T14:00:55;98783.01;;;7.41;63.95
33286;BME280;19656;50.096;20.014;2023-02-19T14:06:06;98797.62;;;7.25;63.73
33286;BME280;19656;50.096;20.014;2023-02-19T14:11:12;98798.06;;;7.14;64.23
33286;BME280;19656;50.096;20.014;2023-02-19T14:21:47;98816.68;;;7.05;63.37
33286;BME280;19656;50.096;20.014;2023-02-19T14:26:55;98828.67;;;7.08;62.87
33286;BME280;19656;50.096;20.014;2023-02-19T14:32:04;98837.35;;;7.11;62.33
33286;BME280;19656;50.096;20.014;2023-02-19T14:37:18;98852.04;;;7.06;62.43
33286;BME280;19656;50.096;20.014;2023-02-19T14:42:24;98867.31;;;6.98;61.73
33286;BME280;19656;50.096;20.014;2023-02-19T14:47:35;98883.17;;;6.98;61.75
33286;BME280;19656;50.096;20.014;2023-02-19T14:52:45;98897.31;;;6.97;61.43
33286;BME280;19656;50.096;20.014;2023-02-19T14:57:52;98910.77;;;6.93;61.20
33286;BME280;19656;50.096;20.014;2023-02-19T15:02:58;98920.05;;;6.90;61.14
33286;BME280;19656;50.096;20.014;2023-02-19T15:08:11;98924.55;;;6.77;60.27
33286;BME280;19656;50.096;20.014;2023-02-19T15:13:24;98925.55;;;6.68;60.60
33286;BME280;19656;50.096;20.014;2023-02-19T15:18:30;98934.89;;;6.64;60.58
33286;BME280;19656;50.096;20.014;2023-02-19T15:23:38;98942.55;;;6.58;61.31
33286;BME280;19656;50.096;20.014;2023-02-19T15:28:44;98948.33;;;6.59;61.26
33286;BME280;19656;50.096;20.014;2023-02-19T15:33:51;98958.64;;;6.61;60.85
33286;BME280;19656;50.096;20.014;2023-02-19T15:38:59;98969.08;;;6.53;60.26
33286;BME280;19656;50.096;20.014;2023-02-19T15:44:43;98970.71;;;6.45;60.48
33286;BME280;19656;50.096;20.014;2023-02-19T15:49:53;98983.29;;;6.47;60.77
33286;BME280;19656;50.096;20.014;2023-02-19T16:02:47;99006.89;;;6.51;60.17
33286;BME280;19656;50.096;20.014;2023-02-19T16:16:05;99017.84;;;6.38;60.35
33286;BME280;19656;50.096;20.014;2023-02-19T16:21:23;99035.71;;;6.33;60.37
33286;BME280;19656;50.096;20.014;2023-02-19T16:26:27;99057.73;;;6.29;60.07
33286;BME280;19656;50.096;20.014;2023-02-19T16:31:31;99071.59;;;6.31;60.44
33286;BME280;19656;50.096;20.014;2023-02-19T16:36:37;99087.48;;;6.37;60.57
33286;BME280;19656;50.096;20.014;2023-02-19T16:47:15;99097.50;;;6.34;58.98
33286;BME280;19656;50.096;20.014;2023-02-19T16:52:19;99108.27;;;6.26;58.63
33286;BME280;19656;50.096;20.014;2023-02-19T16:57:24;99109.52;;;6.17;57.92
33286;BME280;19656;50.096;20.014;2023-02-19T17:02:37;99126.34;;;6.16;57.44
33286;BME280;19656;50.096;20.014;2023-02-19T17:07:41;99134.38;;;6.13;57.51
33286;BME280;19656;50.096;20.014;2023-02-19T17:12:45;99141.92;;;6.18;56.89
33286;BME280;19656;50.096;20.014;2023-02-19T17:17:49;99152.17;;;6.17;56.49
33286;BME280;19656;50.096;20.014;2023-02-19T17:22:55;99160.77;;;6.13;56.49
33286;BME280;19656;50.096;20.014;2023-02-19T17:27:58;99172.97;;;6.12;56.41
33286;BME280;19656;50.096;20.014;2023-02-19T17:33:02;99183.32;;;6.13;56.43
33286;BME280;19656;50.096;20.014;2023-02-19T17:38:05;99193.55;;;6.21;56.13
33286;BME280;19656;50.096;20.014;2023-02-19T17:43:25;99202.64;;;6.23;56.23
33286;BME280;19656;50.096;20.014;2023-02-19T17:48:29;99203.41;;;6.17;55.95
33286;BME280;19656;50.096;20.014;2023-02-19T17:53:33;99209.20;;;6.14;55.99
33286;BME280;19656;50.096;20.014;2023-02-19T17:58:36;99216.63;;;6.05;56.14
33286;BME280;19656;50.096;20.014;2023-02-19T18:03:39;99227.23;;;5.95;56.24
33286;BME280;19656;50.096;20.014;2023-02-19T18:08:51;99242.27;;;5.93;56.54
33286;BME280;19656;50.096;20.014;2023-02-19T18:14:11;99253.06;;;5.86;56.70
33286;BME280;19656;50.096;20.014;2023-02-19T18:19:14;99254.70;;;5.80;57.00
33286;BME280;19656;50.096;20.014;2023-02-19T18:24:18;99266.16;;;5.80;57.12
33286;BME280;19656;50.096;20.014;2023-02-19T18:29:21;99275.48;;;5.75;57.15
33286;BME280;19656;50.096;20.014;2023-02-19T18:34:26;99277.23;;;5.76;57.15
33286;BME280;19656;50.096;20.014;2023-02-19T18:39:29;99290.52;;;5.74;57.51
33286;BME280;19656;50.096;20.014;2023-02-19T18:45:05;99301.08;;;5.74;57.21
33286;BME280;19656;50.096;20.014;2023-02-19T18:50:42;99305.17;;;5.63;57.22
33286;BME280;19656;50.096;20.014;2023-02-19T18:55:46;99308.65;;;5.60;57.27
33286;BME280;19656;50.096;20.014;2023-02-19T19:01:27;99309.19;;;5.55;57.49
33286;BME280;19656;50.096;20.014;2023-02-19T19:06:33;99312.23;;;5.54;57.45
33286;BME280;19656;50.096;20.014;2023-02-19T19:12:24;99317.79;;;5.51;57.51
33286;BME280;19656;50.096;20.014;2023-02-19T20:00:00;99375.58;;;5.44;58.34
33286;BME280;19656;50.096;20.014;2023-02-19T20:05:59;99386.61;;;5.25;58.14
33286;BME280;19656;50.096;20.014;2023-02-19T20:11:03;99386.42;;;5.20;58.58
33286;BME280;19656;50.096;20.014;2023-02-19T20:16:07;99389.35;;;5.28;58.65
33286;BME280;19656;50.096;20.014;2023-02-19T20:21:12;99397.31;;;5.32;58.37
33286;BME280;19656;50.096;20.014;2023-02-19T20:26:21;99397.70;;;5.20;58.34
33286;BME280;19656;50.096;20.014;2023-02-19T20:31:25;99394.65;;;5.06;58.62
33286;BME280;19656;50.096;20.014;2023-02-19T20:36:28;99400.02;;;5.09;58.79
33286;BME280;19656;50.096;20.014;2023-02-19T20:41:32;99397.25;;;5.13;58.88
33286;BME280;19656;50.096;20.014;2023-02-19T20:46:46;99399.84;;;5.19;58.65
33286;BME280;19656;50.096;20.014;2023-02-19T20:51:52;99411.16;;;5.22;58.24
33286;BME280;19656;50.096;20.014;2023-02-19T20:56:59;99416.45;;;5.22;58.34
33286;BME280;19656;50.096;20.014;2023-02-19T21:02:12;99423.95;;;5.19;58.27
33286;BME280;19656;50.096;20.014;2023-02-19T21:07:16;99429.27;;;5.12;58.30
33286;BME280;19656;50.096;20.014;2023-02-19T21:12:20;99433.80;;;5.14;58.24
33286;BME280;19656;50.096;20.014;2023-02-19T21:17:24;99443.88;;;5.07;57.89
33286;BME280;19656;50.096;20.014;2023-02-19T21:22:27;99454.05;;;5.02;58.32
33286;BME280;19656;50.096;20.014;2023-02-19T21:27:32;99458.80;;;4.96;58.39
33286;BME280;19656;50.096;20.014;2023-02-19T21:32:36;99460.04;;;4.91;58.83
33286;BME280;19656;50.096;20.014;2023-02-19T21:37:42;99464.73;;;4.87;58.92
33286;BME280;19656;50.096;20.014;2023-02-19T21:42:46;99472.94;;;4.89;58.92
33286;BME280;19656;50.096;20.014;2023-02-19T21:47:50;99480.46;;;4.84;59.33
33286;BME280;19656;50.096;20.014;2023-02-19T21:52:54;99494.73;;;4.72;59.62
33286;BME280;19656;50.096;20.014;2023-02-19T21:57:57;99499.45;;;4.67;59.58
33286;BME280;19656;50.096;20.014;2023-02-19T22:03:01;99502.51;;;4.65;59.70
33286;BME280;19656;50.096;20.014;2023-02-19T22:08:05;99503.69;;;4.66;59.52
33286;BME280;19656;50.096;20.014;2023-02-19T22:13:09;99505.72;;;4.58;59.79
33286;BME280;19656;50.096;20.014;2023-02-19T22:18:12;99516.84;;;4.56;59.91
33286;BME280;19656;50.096;20.014;2023-02-19T22:23:16;99520.58;;;4.48;59.45
33286;BME280;19656;50.096;20.014;2023-02-19T22:28:22;99519.36;;;4.42;59.45
33286;BME280;19656;50.096;20.014;2023-02-19T22:33:25;99527.55;;;4.38;59.74
33286;BME280;19656;50.096;20.014;2023-02-19T22:38:29;99533.33;;;4.27;59.76
33286;BME280;19656;50.096;20.014;2023-02-19T22:43:32;99540.48;;;4.22;60.07
33286;BME280;19656;50.096;20.014;2023-02-19T22:48:36;99545.04;;;4.22;60.32
33286;BME280;19656;50.096;20.014;2023-02-19T22:58:46;99556.52;;;4.14;60.29
33286;BME280;19656;50.096;20.014;2023-02-19T23:03:58;99560.35;;;4.21;60.48
33286;BME280;19656;50.096;20.014;2023-02-19T23:09:12;99561.66;;;4.24;60.27
33286;BME280;19656;50.096;20.014;2023-02-19T23:14:27;99563.42;;;4.31;60.27
33286;BME280;19656;50.096;20.014;2023-02-19T23:19:30;99560.73;;;4.33;60.09
33286;BME280;19656;50.096;20.014;2023-02-19T23:24:34;99566.14;;;4.28;60.20
33286;BME280;19656;50.096;20.014;2023-02-19T23:29:38;99568.81;;;4.33;60.19
33286;BME280;19656;50.096;20.014;2023-02-19T23:34:41;99577.52;;;4.36;60.19
33286;BME280;19656;50.096;20.014;2023-02-19T23:39:45;99575.37;;;4.37;60.03
33286;BME280;19656;50.096;20.014;2023-02-19T23:44:48;99577.11;;;4.38;60.03
33286;BME280;19656;50.096;20.014;2023-02-19T23:49:51;99572.17;;;4.38;60.31
33286;BME280;19656;50.096;20.014;2023-02-19T23:54:55;99581.48;;;4.39;60.22
33286;BME280;19656;50.096;20.014;2023-02-19T23:59:58;99579.19;;;4.39;60.45
